Time;durP1;ratioP1;P1;durP2;ratioP2;P2;SDS_P1;SDS_P2;PMS_P1;PMS_P2;Temp;Humidity;BMP_temperature;BMP_pressure;BME280_temperature;BME280_humidity;BME280_pressure;Samples;Min_cycle;Max_cycle;Signal;HPM_P1;HPM_P2
2019/11/10 00:00:19;;;;;;;3.44;2.77;;;;;;;20.24;50.93;99814.08;;;;-50
2019/11/10 00:03:19;;;;;;;2.93;2.63;;;;;;;20.23;50.91;99811.27;;;;-50
2019/11/10 00:06:19;;;;;;;3.02;2.73;;;;;;;20.22;50.84;99813.75;;;;-50
2019/11/10 00:09:19;;;;;;;3.09;2.78;;;;;;;20.19;50.90;99814.16;;;;-51
2019/11/10 00:12:18;;;;;;;2.76;2.56;;;;;;;20.18;50.96;99820.73;;;;-50
2019/11/10 00:15:19;;;;;;;2.97;2.69;;;;;;;20.17;50.98;99821.58;;;;-50
2019/11/10 00:18:19;;;;;;;2.92;2.62;;;;;;;20.16;50.99;99822.69;;;;-51
2019/11/10 00:21:19;;;;;;;2.83;2.50;;;;;;;20.16;50.91;99827.14;;;;-50
2019/11/10 00:24:19;;;;;;;3.11;2.81;;;;;;;20.15;51.01;99829.96;;;;-50
2019/11/10 00:27:19;;;;;;;2.93;2.63;;;;;;;20.13;50.97;99831.51;;;;-50
2019/11/10 00:30:19;;;;;;;2.72;2.52;;;;;;;20.13;50.91;99833.92;;;;-50
2019/11/10 00:33:19;;;;;;;2.87;2.62;;;;;;;20.10;51.04;99830.57;;;;-50
2019/11/10 00:36:19;;;;;;;2.75;2.53;;;;;;;20.10;50.95;99833.66;;;;-50
2019/11/10 00:39:18;;;;;;;2.97;2.67;;;;;;;20.08;51.01;99833.59;;;;-50
2019/11/10 00:42:19;;;;;;;3.09;2.63;;;;;;;20.07;51.04;99829.14;;;;-50
2019/11/10 00:45:19;;;;;;;3.17;2.88;;;;;;;20.05;51.00;99821.62;;;;-51
2019/11/10 00:48:19;;;;;;;2.89;2.69;;;;;;;20.04;50.99;99827.70;;;;-50
2019/11/10 00:51:19;;;;;;;3.09;2.73;;;;;;;20.04;50.99;99831.99;;;;-50
2019/11/10 00:54:19;;;;;;;2.71;2.49;;;;;;;20.03;50.96;99833.36;;;;-50
2019/11/10 00:57:19;;;;;;;2.96;2.70;;;;;;;20.02;51.00;99829.08;;;;-51
2019/11/10 01:00:19;;;;;;;3.01;2.71;;;;;;;19.99;51.14;99828.55;;;;-50
2019/11/10 01:03:19;;;;;;;2.79;2.59;;;;;;;19.99;51.14;99828.81;;;;-50
2019/11/10 01:06:19;;;;;;;3.10;2.83;;;;;;;19.99;51.09;99828.71;;;;-50
2019/11/10 01:09:18;;;;;;;2.89;2.68;;;;;;;19.97;51.11;99828.55;;;;-50
2019/11/10 01:12:19;;;;;;;2.91;2.61;;;;;;;19.96;51.07;99826.94;;;;-51
2019/11/10 01:15:19;;;;;;;2.86;2.60;;;;;;;19.96;51.08;99827.94;;;;-50
2019/11/10 01:18:19;;;;;;;3.19;2.89;;;;;;;19.94;51.03;99822.92;;;;-51
2019/11/10 01:21:19;;;;;;;2.97;2.69;;;;;;;19.94;51.14;99823.05;;;;-50
2019/11/10 01:24:18;;;;;;;2.99;2.72;;;;;;;19.93;51.04;99825.40;;;;-50
2019/11/10 01:27:19;;;;;;;2.75;2.55;;;;;;;19.93;51.08;99832.70;;;;-51
2019/11/10 01:30:19;;;;;;;2.95;2.65;;;;;;;19.92;50.98;99828.78;;;;-51
2019/11/10 01:33:19;;;;;;;2.89;2.69;;;;;;;19.91;51.10;99830.77;;;;-50
2019/11/10 01:36:19;;;;;;;2.73;2.53;;;;;;;19.90;51.07;99829.39;;;;-50
2019/11/10 01:39:19;;;;;;;2.89;2.61;;;;;;;19.89;51.10;99827.11;;;;-50
2019/11/10 01:42:19;;;;;;;3.15;2.65;;;;;;;19.89;51.08;99830.87;;;;-50
2019/11/10 01:45:19;;;;;;;2.80;2.60;;;;;;;19.87;51.16;99824.44;;;;-50
2019/11/10 01:48:19;;;;;;;2.65;2.45;;;;;;;19.86;51.08;99826.28;;;;-50
2019/11/10 01:51:19;;;;;;;2.72;2.52;;;;;;;19.85;50.98;99825.41;;;;-50
2019/11/10 01:54:19;;;;;;;2.87;2.67;;;;;;;19.85;51.15;99823.30;;;;-50
2019/11/10 01:57:19;;;;;;;2.75;2.54;;;;;;;19.83;51.13;99825.34;;;;-51
2019/11/10 02:00:19;;;;;;;2.60;2.40;;;;;;;19.82;51.16;99822.12;;;;-50
2019/11/10 02:03:19;;;;;;;2.78;2.53;;;;;;;19.82;51.14;99822.97;;;;-50
2019/11/10 02:06:19;;;;;;;2.73;2.49;;;;;;;19.81;51.16;99823.00;;;;-50
2019/11/10 02:09:19;;;;;;;2.81;2.61;;;;;;;19.80;51.22;99815.59;;;;-50
2019/11/10 02:12:19;;;;;;;2.73;2.53;;;;;;;19.79;51.08;99811.97;;;;-50
2019/11/10 02:15:19;;;;;;;2.70;2.50;;;;;;;19.79;51.14;99813.15;;;;-50
2019/11/10 02:18:19;;;;;;;2.70;2.50;;;;;;;19.77;51.17;99807.89;;;;-50
2019/11/10 02:21:19;;;;;;;2.72;2.52;;;;;;;19.78;51.17;99805.58;;;;-51
2019/11/10 02:24:19;;;;;;;2.68;2.48;;;;;;;19.76;51.17;99806.75;;;;-50
2019/11/10 02:27:19;;;;;;;2.65;2.45;;;;;;;19.76;51.15;99810.53;;;;-50
2019/11/10 02:30:19;;;;;;;2.61;2.41;;;;;;;19.75;51.15;99808.33;;;;-50
2019/11/10 02:33:19;;;;;;;2.85;2.61;;;;;;;19.75;51.15;99808.33;;;;-50
2019/11/10 02:36:19;;;;;;;2.69;2.49;;;;;;;19.73;51.09;99799.72;;;;-50
2019/11/10 02:39:19;;;;;;;2.58;2.38;;;;;;;19.72;51.10;99803.63;;;;-50
2019/11/10 02:42:19;;;;;;;2.55;2.35;;;;;;;19.72;51.16;99804.27;;;;-50
2019/11/10 02:45:19;;;;;;;2.82;2.53;;;;;;;19.71;51.16;99806.25;;;;-50
2019/11/10 02:48:19;;;;;;;2.73;2.53;;;;;;;19.71;51.18;99809.00;;;;-50
2019/11/10 02:51:19;;;;;;;2.73;2.53;;;;;;;19.69;51.14;99811.75;;;;-50
2019/11/10 02:54:19;;;;;;;2.87;2.58;;;;;;;19.69;51.14;99812.88;;;;-50
2019/11/10 02:57:19;;;;;;;2.85;2.63;;;;;;;19.69;51.15;99815.90;;;;-50
2019/11/10 03:00:19;;;;;;;2.79;2.59;;;;;;;19.68;51.13;99819.65;;;;-50
2019/11/10 03:03:19;;;;;;;2.68;2.48;;;;;;;19.66;51.10;99820.86;;;;-50
2019/11/10 03:06:19;;;;;;;2.69;2.49;;;;;;;19.66;51.15;99817.14;;;;-50
2019/11/10 03:09:19;;;;;;;2.76;2.55;;;;;;;19.65;51.10;99816.80;;;;-50
2019/11/10 03:12:19;;;;;;;2.75;2.52;;;;;;;19.66;51.13;99814.73;;;;-50
2019/11/10 03:15:19;;;;;;;2.61;2.41;;;;;;;19.64;51.14;99814.09;;;;-50
2019/11/10 03:18:19;;;;;;;2.70;2.50;;;;;;;19.65;51.12;99819.95;;;;-50
2019/11/10 03:21:19;;;;;;;2.60;2.39;;;;;;;19.63;51.17;99820.66;;;;-50
2019/11/10 03:24:19;;;;;;;2.79;2.53;;;;;;;19.64;51.15;99826.28;;;;-50
2019/11/10 03:27:18;;;;;;;2.60;2.40;;;;;;;19.62;51.12;99825.58;;;;-50
2019/11/10 03:30:19;;;;;;;2.55;2.35;;;;;;;19.61;51.13;99825.37;;;;-50
2019/11/10 03:33:19;;;;;;;2.71;2.35;;;;;;;19.62;51.10;99827.55;;;;-50
2019/11/10 03:36:19;;;;;;;2.62;2.42;;;;;;;19.61;51.07;99827.52;;;;-50
2019/11/10 03:39:19;;;;;;;2.58;2.38;;;;;;;19.61;51.07;99830.74;;;;-50
2019/11/10 03:42:19;;;;;;;2.63;2.43;;;;;;;19.60;51.12;99837.81;;;;-50
2019/11/10 03:45:19;;;;;;;2.51;2.31;;;;;;;19.59;51.08;99839.78;;;;-50
2019/11/10 03:48:19;;;;;;;2.49;2.29;;;;;;;19.57;51.09;99838.48;;;;-50
2019/11/10 03:51:19;;;;;;;2.58;2.38;;;;;;;19.57;51.09;99849.70;;;;-50
2019/11/10 03:54:19;;;;;;;2.58;2.38;;;;;;;19.56;51.13;99847.82;;;;-50
2019/11/10 03:57:24;;;;;;;2.50;2.30;;;;;;;19.56;51.04;99853.75;;;;-50
2019/11/10 04:00:18;;;;;;;2.63;2.43;;;;;;;19.56;51.06;99860.78;;;;-51
2019/11/10 04:03:19;;;;;;;2.42;2.22;;;;;;;19.56;51.07;99863.13;;;;-50
2019/11/10 04:06:19;;;;;;;2.50;2.31;;;;;;;19.54;51.13;99863.89;;;;-50
2019/11/10 04:09:19;;;;;;;2.47;2.27;;;;;;;19.54;51.08;99869.09;;;;-50
2019/11/10 04:12:19;;;;;;;2.57;2.37;;;;;;;19.53;51.08;99869.66;;;;-50
2019/11/10 04:15:19;;;;;;;2.55;2.32;;;;;;;19.53;51.06;99868.89;;;;-50
2019/11/10 04:18:19;;;;;;;2.31;2.11;;;;;;;19.53;51.05;99866.38;;;;-50
2019/11/10 04:21:19;;;;;;;2.58;2.30;;;;;;;19.51;51.06;99861.14;;;;-50
2019/11/10 04:24:18;;;;;;;2.55;2.35;;;;;;;19.51;51.04;99863.39;;;;-50
2019/11/10 04:27:19;;;;;;;2.55;2.34;;;;;;;19.50;50.99;99868.81;;;;-50
2019/11/10 04:30:19;;;;;;;2.31;2.16;;;;;;;19.50;51.00;99867.81;;;;-50
2019/11/10 04:33:19;;;;;;;2.41;2.21;;;;;;;19.49;51.02;99867.34;;;;-50
2019/11/10 04:36:19;;;;;;;2.49;2.29;;;;;;;19.48;50.96;99869.81;;;;-50
2019/11/10 04:39:19;;;;;;;2.51;2.31;;;;;;;19.48;50.97;99874.77;;;;-50
2019/11/10 04:42:18;;;;;;;2.47;2.27;;;;;;;19.48;50.97;99870.89;;;;-50
2019/11/10 04:45:19;;;;;;;2.50;2.30;;;;;;;19.46;50.98;99873.59;;;;-50
2019/11/10 04:48:19;;;;;;;2.39;2.19;;;;;;;19.46;50.94;99874.53;;;;-50
2019/11/10 04:51:19;;;;;;;2.62;2.37;;;;;;;19.47;50.89;99881.41;;;;-50
2019/11/10 04:54:19;;;;;;;2.40;2.20;;;;;;;19.46;50.88;99883.98;;;;-50
2019/11/10 04:57:32;;;;;;;2.50;2.30;;;;;;;19.46;50.90;99883.72;;;;-50
2019/11/10 05:00:19;;;;;;;2.46;2.26;;;;;;;19.44;50.89;99887.36;;;;-50
2019/11/10 05:03:18;;;;;;;2.40;2.20;;;;;;;19.44;50.84;99891.61;;;;-50
2019/11/10 05:06:19;;;;;;;2.59;2.39;;;;;;;19.42;50.88;99894.22;;;;-50
2019/11/10 05:09:19;;;;;;;2.49;2.29;;;;;;;19.43;50.86;99894.99;;;;-50
2019/11/10 05:12:19;;;;;;;2.49;2.29;;;;;;;19.41;50.82;99901.59;;;;-50
2019/11/10 05:15:19;;;;;;;2.29;2.09;;;;;;;19.42;50.73;99909.73;;;;-50
2019/11/10 05:18:19;;;;;;;2.24;2.04;;;;;;;19.43;50.83;99914.12;;;;-50
2019/11/10 05:21:19;;;;;;;2.30;2.10;;;;;;;19.44;50.83;99915.06;;;;-50
2019/11/10 05:24:28;;;;;;;2.34;2.14;;;;;;;19.47;50.82;99922.13;;;;-49
2019/11/10 05:27:19;;;;;;;2.32;2.12;;;;;;;19.49;51.00;99916.81;;;;-49
2019/11/10 05:30:19;;;;;;;2.35;2.15;;;;;;;19.51;51.04;99918.66;;;;-50
2019/11/10 05:33:19;;;;;;;2.19;1.99;;;;;;;19.53;51.19;99918.06;;;;-50
2019/11/10 05:36:19;;;;;;;2.19;1.99;;;;;;;19.57;51.24;99919.94;;;;-49
2019/11/10 05:39:19;;;;;;;2.11;1.95;;;;;;;19.59;51.30;99924.87;;;;-50
2019/11/10 05:42:19;;;;;;;2.49;2.01;;;;;;;19.63;51.28;99924.08;;;;-50
2019/11/10 05:45:19;;;;;;;2.16;1.96;;;;;;;19.67;51.22;99929.67;;;;-50
2019/11/10 05:48:19;;;;;;;2.35;2.15;;;;;;;19.70;51.11;99931.73;;;;-50
2019/11/10 05:51:19;;;;;;;2.42;2.22;;;;;;;19.73;51.15;99935.85;;;;-50
2019/11/10 05:54:19;;;;;;;2.11;1.89;;;;;;;19.78;51.21;99939.51;;;;-50
2019/11/10 05:57:21;;;;;;;2.25;2.05;;;;;;;19.81;51.17;99942.06;;;;-50
2019/11/10 06:00:24;;;;;;;2.13;1.97;;;;;;;19.84;51.24;99947.16;;;;-50
2019/11/10 06:03:19;;;;;;;2.09;1.98;;;;;;;19.88;51.21;99952.93;;;;-50
2019/11/10 06:06:19;;;;;;;2.21;2.03;;;;;;;19.90;51.25;99959.63;;;;-50
2019/11/10 06:09:19;;;;;;;2.19;1.99;;;;;;;19.94;51.23;99963.59;;;;-50
2019/11/10 06:12:19;;;;;;;2.12;1.92;;;;;;;19.97;51.25;99966.61;;;;-50
2019/11/10 06:15:19;;;;;;;2.19;2.00;;;;;;;20.00;51.13;99966.75;;;;-51
2019/11/10 06:18:19;;;;;;;2.29;2.09;;;;;;;20.01;51.26;99968.23;;;;-50
2019/11/10 06:21:19;;;;;;;2.11;1.99;;;;;;;20.03;51.16;99962.03;;;;-50
2019/11/10 06:24:24;;;;;;;1.99;1.89;;;;;;;20.05;51.23;99963.57;;;;-49
2019/11/10 06:27:19;;;;;;;2.09;1.95;;;;;;;20.07;51.23;99969.11;;;;-50
2019/11/10 06:30:19;;;;;;;2.12;1.92;;;;;;;20.10;51.15;99972.56;;;;-50
2019/11/10 06:33:20;;;;;;;1.89;1.79;;;;;;;20.11;51.14;99967.73;;;;-50
2019/11/10 06:36:19;;;;;;;2.03;1.91;;;;;;;20.13;51.13;99978.70;;;;-50
2019/11/10 06:39:19;;;;;;;2.05;1.91;;;;;;;20.15;51.16;99977.09;;;;-50
2019/11/10 06:42:19;;;;;;;1.95;1.83;;;;;;;20.16;51.07;99978.86;;;;-50
2019/11/10 06:45:19;;;;;;;2.83;1.96;;;;;;;20.16;51.12;99982.48;;;;-50
2019/11/10 06:51:27;;;;;;;2.03;1.93;;;;;;;20.20;51.00;99994.50;;;;-50
2019/11/10 06:54:19;;;;;;;2.11;1.91;;;;;;;20.22;51.02;99998.35;;;;-51
2019/11/10 06:57:19;;;;;;;2.31;2.03;;;;;;;20.21;50.95;99996.64;;;;-57
2019/11/10 07:00:18;;;;;;;2.22;2.03;;;;;;;20.23;50.94;100002.24;;;;-57
2019/11/10 07:03:19;;;;;;;2.34;2.14;;;;;;;20.23;50.94;100001.67;;;;-57
2019/11/10 07:06:19;;;;;;;2.19;1.99;;;;;;;20.24;50.84;100006.63;;;;-57
2019/11/10 07:09:29;;;;;;;2.29;2.09;;;;;;;20.25;50.94;100009.45;;;;-57
2019/11/10 07:12:19;;;;;;;2.14;1.97;;;;;;;20.25;50.84;100012.14;;;;-57
2019/11/10 07:15:19;;;;;;;2.08;1.98;;;;;;;20.27;50.88;100017.94;;;;-57
2019/11/10 07:18:19;;;;;;;2.13;2.00;;;;;;;20.27;50.78;100018.95;;;;-57
2019/11/10 07:21:19;;;;;;;2.37;2.17;;;;;;;20.28;50.73;100024.48;;;;-56
2019/11/10 07:24:18;;;;;;;2.33;2.13;;;;;;;20.29;50.82;100028.50;;;;-58
2019/11/10 07:27:18;;;;;;;2.27;2.08;;;;;;;20.30;50.84;100033.33;;;;-57
2019/11/10 07:30:19;;;;;;;2.15;2.01;;;;;;;20.30;50.83;100033.67;;;;-56
2019/11/10 07:33:19;;;;;;;2.30;2.10;;;;;;;20.31;50.71;100034.27;;;;-57
2019/11/10 07:36:19;;;;;;;2.18;2.07;;;;;;;20.31;50.68;100041.08;;;;-57
2019/11/10 07:39:19;;;;;;;2.24;2.07;;;;;;;20.32;50.74;100045.21;;;;-57
2019/11/10 07:42:19;;;;;;;2.40;2.20;;;;;;;20.33;50.60;100048.09;;;;-57
2019/11/10 07:45:18;;;;;;;2.23;2.07;;;;;;;20.33;50.72;100046.86;;;;-58
2019/11/10 07:48:18;;;;;;;2.09;1.94;;;;;;;20.34;50.63;100051.15;;;;-58
2019/11/10 07:51:19;;;;;;;2.09;1.99;;;;;;;20.34;50.65;100049.73;;;;-57
2019/11/10 07:54:19;;;;;;;2.08;1.95;;;;;;;20.35;50.59;100053.03;;;;-57
2019/11/10 07:57:18;;;;;;;2.21;2.01;;;;;;;20.35;50.64;100059.67;;;;-57
2019/11/10 08:03:19;;;;;;;2.25;2.05;;;;;;;20.36;50.63;100066.14;;;;-57
2019/11/10 08:06:19;;;;;;;2.35;2.15;;;;;;;20.37;50.66;100071.20;;;;-57
2019/11/10 08:09:19;;;;;;;2.29;2.09;;;;;;;20.38;50.53;100074.43;;;;-57
2019/11/10 08:12:19;;;;;;;2.29;2.09;;;;;;;20.38;50.58;100080.91;;;;-57
2019/11/10 08:15:18;;;;;;;2.23;2.03;;;;;;;20.39;50.47;100083.45;;;;-58
2019/11/10 08:18:19;;;;;;;2.24;2.04;;;;;;;20.39;50.54;100089.22;;;;-57
2019/11/10 08:21:19;;;;;;;2.29;2.09;;;;;;;20.39;50.34;100093.18;;;;-57
2019/11/10 08:24:19;;;;;;;2.36;2.16;;;;;;;20.40;50.52;100094.96;;;;-57
2019/11/10 08:27:19;;;;;;;2.17;2.01;;;;;;;20.40;50.50;100099.22;;;;-57
2019/11/10 08:30:19;;;;;;;2.59;2.39;;;;;;;20.41;50.23;100105.06;;;;-56
2019/11/10 08:33:19;;;;;;;2.14;1.94;;;;;;;20.41;50.42;100108.81;;;;-57
2019/11/10 08:36:19;;;;;;;2.20;2.00;;;;;;;20.42;50.37;100110.47;;;;-56
2019/11/10 08:39:19;;;;;;;2.30;2.10;;;;;;;20.42;50.33;100116.84;;;;-57
2019/11/10 08:42:19;;;;;;;2.23;2.04;;;;;;;20.42;50.36;100121.87;;;;-57
2019/11/10 08:45:26;;;;;;;2.21;2.06;;;;;;;20.43;50.45;100131.03;;;;-57
2019/11/10 08:51:19;;;;;;;2.29;2.09;;;;;;;20.43;50.40;100125.16;;;;-57
2019/11/10 08:54:19;;;;;;;2.09;1.99;;;;;;;20.43;50.37;100127.00;;;;-57
2019/11/10 08:57:19;;;;;;;2.33;2.13;;;;;;;20.44;50.37;100136.86;;;;-58
2019/11/10 09:00:19;;;;;;;2.36;2.16;;;;;;;20.43;50.28;100138.28;;;;-56
2019/11/10 09:03:19;;;;;;;2.29;2.09;;;;;;;20.43;50.38;100136.59;;;;-57
2019/11/10 09:06:19;;;;;;;2.21;2.10;;;;;;;20.45;50.22;100141.16;;;;-56
2019/11/10 09:09:19;;;;;;;2.15;1.96;;;;;;;20.45;50.12;100140.76;;;;-57
2019/11/10 09:12:19;;;;;;;2.30;2.10;;;;;;;20.45;50.35;100150.22;;;;-56
2019/11/10 09:15:19;;;;;;;5.73;2.18;;;;;;;20.47;50.13;100150.49;;;;-58
2019/11/10 09:18:19;;;;;;;2.57;2.25;;;;;;;20.47;50.34;100146.03;;;;-53
2019/11/10 09:21:19;;;;;;;3.61;2.51;;;;;;;20.48;49.90;100151.88;;;;-54
2019/11/10 09:27:19;;;;;;;2.60;2.39;;;;;;;20.51;49.77;100159.73;;;;-55
2019/11/10 09:30:19;;;;;;;4.69;2.34;;;;;;;20.52;49.86;100165.50;;;;-55
2019/11/10 09:33:19;;;;;;;2.47;2.27;;;;;;;20.53;49.60;100160.77;;;;-56
2019/11/10 09:36:19;;;;;;;2.53;2.33;;;;;;;20.56;49.77;100168.23;;;;-54
2019/11/10 09:39:19;;;;;;;2.45;2.25;;;;;;;20.56;49.58;100166.05;;;;-50
2019/11/10 09:42:19;;;;;;;3.53;2.47;;;;;;;20.57;49.46;100165.08;;;;-51
2019/11/10 09:45:19;;;;;;;3.83;2.62;;;;;;;20.58;49.51;100168.80;;;;-50
2019/11/10 09:48:19;;;;;;;4.14;2.39;;;;;;;20.58;49.48;100171.15;;;;-50
2019/11/10 09:51:19;;;;;;;2.94;2.41;;;;;;;20.60;49.45;100172.83;;;;-49
2019/11/10 09:54:19;;;;;;;3.96;2.61;;;;;;;20.61;49.18;100180.41;;;;-49
2019/11/10 09:57:19;;;;;;;2.91;2.61;;;;;;;20.62;48.86;100187.83;;;;-53
2019/11/10 10:00:19;;;;;;;2.66;2.46;;;;;;;20.63;48.76;100188.44;;;;-52
2019/11/10 10:03:19;;;;;;;2.72;2.52;;;;;;;20.64;48.75;100192.16;;;;-49
2019/11/10 10:06:19;;;;;;;2.96;2.67;;;;;;;20.65;48.69;100192.77;;;;-49
2019/11/10 10:09:19;;;;;;;2.83;2.62;;;;;;;20.65;48.66;100193.88;;;;-48
2019/11/10 10:12:19;;;;;;;3.17;2.87;;;;;;;20.67;48.82;100194.95;;;;-51
2019/11/10 10:15:19;;;;;;;2.71;2.50;;;;;;;20.68;48.92;100201.60;;;;-51
2019/11/10 10:18:19;;;;;;;2.52;2.32;;;;;;;20.67;49.24;100200.83;;;;-51
2019/11/10 10:21:19;;;;;;;6.81;2.50;;;;;;;20.68;49.19;100203.37;;;;-51
2019/11/10 10:24:19;;;;;;;4.23;2.58;;;;;;;20.67;49.01;100201.33;;;;-52
2019/11/10 10:27:19;;;;;;;2.55;2.30;;;;;;;20.68;49.21;100202.27;;;;-51
2019/11/10 10:30:19;;;;;;;2.60;2.40;;;;;;;20.68;49.09;100200.86;;;;-50
2019/11/10 10:33:19;;;;;;;2.70;2.50;;;;;;;20.68;49.02;100196.91;;;;-51
2019/11/10 10:36:19;;;;;;;2.82;2.51;;;;;;;20.68;49.12;100196.67;;;;-51
2019/11/10 10:39:19;;;;;;;2.65;2.45;;;;;;;20.68;49.12;100199.09;;;;-51
2019/11/10 10:42:19;;;;;;;2.88;2.57;;;;;;;20.68;49.22;100197.84;;;;-50
2019/11/10 10:45:19;;;;;;;2.83;2.63;;;;;;;20.68;49.10;100198.75;;;;-51
2019/11/10 10:48:19;;;;;;;2.70;2.50;;;;;;;20.69;49.11;100202.92;;;;-50
2019/11/10 10:51:19;;;;;;;3.33;2.61;;;;;;;20.69;49.26;100204.66;;;;-50
2019/11/10 10:54:19;;;;;;;2.85;2.64;;;;;;;20.70;49.12;100205.97;;;;-50
2019/11/10 10:57:19;;;;;;;3.56;2.45;;;;;;;20.70;49.21;100204.53;;;;-50
2019/11/10 11:00:19;;;;;;;3.45;2.52;;;;;;;20.69;49.17;100201.23;;;;-50
2019/11/10 11:03:19;;;;;;;2.73;2.53;;;;;;;20.71;49.19;100205.73;;;;-51
2019/11/10 11:06:19;;;;;;;2.68;2.48;;;;;;;20.71;49.07;100205.06;;;;-50
2019/11/10 11:09:19;;;;;;;3.15;2.63;;;;;;;20.71;49.22;100209.09;;;;-50
2019/11/10 11:12:19;;;;;;;2.81;2.61;;;;;;;20.71;49.14;100211.20;;;;-50
2019/11/10 11:15:19;;;;;;;2.84;2.64;;;;;;;20.71;49.09;100204.66;;;;-50
2019/11/10 11:18:19;;;;;;;2.77;2.57;;;;;;;20.72;49.13;100209.06;;;;-51
2019/11/10 11:21:19;;;;;;;2.79;2.59;;;;;;;20.72;49.14;100209.30;;;;-50
2019/11/10 11:24:19;;;;;;;2.79;2.51;;;;;;;20.72;49.01;100211.91;;;;-50
2019/11/10 11:27:19;;;;;;;2.94;2.69;;;;;;;20.72;49.15;100212.42;;;;-50
2019/11/10 11:30:19;;;;;;;2.98;2.69;;;;;;;20.73;49.20;100210.23;;;;-50
2019/11/10 11:33:19;;;;;;;2.93;2.70;;;;;;;20.72;49.06;100209.73;;;;-50
2019/11/10 11:36:19;;;;;;;2.77;2.55;;;;;;;20.73;49.11;100209.16;;;;-50
2019/11/10 11:39:19;;;;;;;2.89;2.60;;;;;;;20.74;49.10;100206.02;;;;-50
2019/11/10 11:42:19;;;;;;;3.48;2.66;;;;;;;20.75;49.23;100212.09;;;;-48
2019/11/10 11:45:19;;;;;;;2.91;2.68;;;;;;;20.75;49.47;100211.41;;;;-49
2019/11/10 11:48:19;;;;;;;6.01;2.60;;;;;;;20.78;49.61;100218.80;;;;-49
2019/11/10 11:51:19;;;;;;;2.77;2.57;;;;;;;20.79;49.43;100216.53;;;;-50
2019/11/10 11:54:19;;;;;;;3.06;2.71;;;;;;;20.80;49.58;100216.49;;;;-51
2019/11/10 11:57:19;;;;;;;2.83;2.63;;;;;;;20.80;49.52;100215.59;;;;-49
2019/11/10 12:00:19;;;;;;;3.89;2.67;;;;;;;20.84;49.30;100217.03;;;;-49
2019/11/10 12:03:19;;;;;;;7.21;2.69;;;;;;;20.84;49.24;100212.88;;;;-49
2019/11/10 12:06:19;;;;;;;2.73;2.47;;;;;;;20.84;49.30;100210.59;;;;-49
2019/11/10 12:09:18;;;;;;;3.06;2.51;;;;;;;20.84;49.33;100208.34;;;;-49
2019/11/10 12:12:19;;;;;;;2.70;2.50;;;;;;;20.84;49.04;100208.52;;;;-55
2019/11/10 12:15:19;;;;;;;2.89;2.60;;;;;;;20.84;49.26;100205.89;;;;-54
2019/11/10 12:18:19;;;;;;;3.46;2.81;;;;;;;20.84;49.17;100203.95;;;;-55
2019/11/10 12:21:19;;;;;;;2.83;2.58;;;;;;;20.84;49.09;100210.55;;;;-55
2019/11/10 12:24:19;;;;;;;3.21;2.69;;;;;;;20.84;49.00;100209.05;;;;-55
2019/11/10 12:27:19;;;;;;;3.09;2.79;;;;;;;20.83;49.08;100206.70;;;;-55
2019/11/10 12:30:19;;;;;;;2.94;2.74;;;;;;;20.83;49.01;100206.09;;;;-55
2019/11/10 12:33:19;;;;;;;3.17;2.86;;;;;;;20.83;49.06;100210.55;;;;-48
2019/11/10 12:36:19;;;;;;;3.12;2.74;;;;;;;20.83;49.06;100215.05;;;;-51
2019/11/10 12:39:19;;;;;;;3.07;2.80;;;;;;;20.83;49.10;100216.23;;;;-55
2019/11/10 12:42:19;;;;;;;3.09;2.79;;;;;;;20.82;48.99;100216.06;;;;-55
2019/11/10 12:45:19;;;;;;;3.17;2.87;;;;;;;20.82;49.07;100218.88;;;;-49
2019/11/10 12:48:19;;;;;;;3.09;2.79;;;;;;;20.82;49.01;100221.23;;;;-50
2019/11/10 12:51:19;;;;;;;2.95;2.75;;;;;;;20.80;49.01;100225.28;;;;-51
2019/11/10 12:54:19;;;;;;;3.17;2.87;;;;;;;20.80;48.99;100227.67;;;;-51
2019/11/10 12:57:19;;;;;;;3.27;2.97;;;;;;;20.79;48.99;100229.69;;;;-51
2019/11/10 13:00:19;;;;;;;3.03;2.73;;;;;;;20.79;48.96;100231.80;;;;-51
2019/11/10 13:03:19;;;;;;;3.03;2.83;;;;;;;20.78;48.97;100236.03;;;;-50
2019/11/10 13:06:19;;;;;;;2.87;2.66;;;;;;;20.77;49.12;100239.02;;;;-50
2019/11/10 13:09:19;;;;;;;2.99;2.70;;;;;;;20.76;48.99;100240.31;;;;-51
2019/11/10 13:12:19;;;;;;;3.27;2.97;;;;;;;20.76;49.08;100238.70;;;;-51
2019/11/10 13:15:19;;;;;;;3.01;2.79;;;;;;;20.76;48.92;100241.16;;;;-55
2019/11/10 13:18:19;;;;;;;3.14;2.84;;;;;;;20.75;48.95;100246.49;;;;-55
2019/11/10 13:21:19;;;;;;;4.09;2.91;;;;;;;20.74;49.13;100249.81;;;;-56
2019/11/10 13:24:19;;;;;;;4.45;2.76;;;;;;;20.75;49.11;100249.78;;;;-57
2019/11/10 13:27:19;;;;;;;3.78;2.83;;;;;;;20.75;49.11;100255.83;;;;-56
2019/11/10 13:30:19;;;;;;;3.31;2.68;;;;;;;20.77;49.12;100263.52;;;;-54
2019/11/10 13:33:19;;;;;;;4.13;3.05;;;;;;;20.77;49.37;100264.12;;;;-55
2019/11/10 13:36:19;;;;;;;5.28;3.06;;;;;;;20.80;49.43;100264.43;;;;-55
2019/11/10 13:39:19;;;;;;;4.39;3.03;;;;;;;20.81;49.36;100271.20;;;;-53
2019/11/10 13:42:19;;;;;;;3.09;2.85;;;;;;;20.81;49.38;100272.89;;;;-55
2019/11/10 13:45:19;;;;;;;3.67;2.95;;;;;;;20.82;49.46;100274.09;;;;-54
2019/11/10 13:48:19;;;;;;;3.51;3.10;;;;;;;20.82;49.44;100277.09;;;;-56
2019/11/10 13:51:19;;;;;;;3.75;2.81;;;;;;;20.83;49.37;100279.55;;;;-56
2019/11/10 13:54:19;;;;;;;3.34;3.05;;;;;;;20.84;49.38;100281.19;;;;-56
2019/11/10 13:57:19;;;;;;;4.30;2.97;;;;;;;20.85;49.54;100278.41;;;;-57
2019/11/10 14:00:19;;;;;;;3.51;3.21;;;;;;;20.86;49.36;100282.27;;;;-54
2019/11/10 14:03:19;;;;;;;3.70;3.15;;;;;;;20.87;49.42;100286.13;;;;-58
2019/11/10 14:06:19;;;;;;;3.95;3.33;;;;;;;20.88;49.54;100285.77;;;;-59
2019/11/10 14:09:19;;;;;;;3.93;3.19;;;;;;;20.89;49.38;100287.55;;;;-55
2019/11/10 14:12:19;;;;;;;3.53;3.21;;;;;;;20.89;49.44;100293.25;;;;-54
2019/11/10 14:15:19;;;;;;;3.65;3.35;;;;;;;20.91;49.58;100299.70;;;;-54
2019/11/10 14:18:19;;;;;;;3.46;3.16;;;;;;;20.93;49.64;100308.00;;;;-52
2019/11/10 14:21:18;;;;;;;3.68;3.38;;;;;;;20.93;49.53;100309.17;;;;-55
2019/11/10 14:24:19;;;;;;;3.75;3.45;;;;;;;20.94;49.58;100310.83;;;;-50
2019/11/10 14:27:19;;;;;;;4.63;3.55;;;;;;;20.95;49.65;100311.00;;;;-52
2019/11/10 14:30:19;;;;;;;4.59;3.45;;;;;;;20.96;49.67;100317.84;;;;-58
2019/11/10 14:33:19;;;;;;;4.47;3.79;;;;;;;20.96;49.65;100325.50;;;;-53
2019/11/10 14:36:19;;;;;;;4.05;3.65;;;;;;;20.98;49.65;100321.95;;;;-52
2019/11/10 14:39:19;;;;;;;4.20;3.68;;;;;;;20.97;49.50;100327.35;;;;-56
2019/11/10 14:45:19;;;;;;;4.15;3.75;;;;;;;20.98;49.53;100335.38;;;;-48
2019/11/10 14:48:19;;;;;;;4.31;3.69;;;;;;;20.99;49.64;100339.11;;;;-51
2019/11/10 14:51:19;;;;;;;5.59;3.97;;;;;;;20.98;49.39;100344.22;;;;-50
2019/11/10 14:54:19;;;;;;;4.74;4.29;;;;;;;20.93;48.09;100351.92;;;;-50
2019/11/10 14:57:19;;;;;;;12.69;4.81;;;;;;;20.95;48.13;100354.58;;;;-50
2019/11/10 15:00:19;;;;;;;6.99;4.41;;;;;;;20.94;48.62;100362.77;;;;-50
2019/11/10 15:03:19;;;;;;;7.58;4.43;;;;;;;20.93;48.64;100366.52;;;;-50
2019/11/10 15:06:19;;;;;;;4.67;4.05;;;;;;;20.93;48.81;100370.22;;;;-50
2019/11/10 15:09:19;;;;;;;5.33;4.32;;;;;;;20.92;48.89;100375.85;;;;-48
2019/11/10 15:12:19;;;;;;;7.54;5.55;;;;;;;20.86;47.40;100376.44;;;;-48
2019/11/10 15:15:19;;;;;;;9.75;6.12;;;;;;;20.84;45.91;100377.17;;;;-49
2019/11/10 15:18:19;;;;;;;8.83;5.72;;;;;;;20.83;46.06;100377.40;;;;-50
2019/11/10 15:21:19;;;;;;;5.77;5.03;;;;;;;20.85;47.03;100378.28;;;;-50
2019/11/10 15:24:19;;;;;;;9.29;5.09;;;;;;;20.84;47.80;100377.84;;;;-51
2019/11/10 15:27:19;;;;;;;6.75;4.69;;;;;;;20.84;47.88;100380.96;;;;-50
2019/11/10 15:30:19;;;;;;;6.47;5.11;;;;;;;20.85;48.03;100384.66;;;;-50
2019/11/10 15:33:19;;;;;;;5.60;4.96;;;;;;;20.85;48.07;100389.66;;;;-50
2019/11/10 15:36:19;;;;;;;5.11;4.51;;;;;;;20.84;48.18;100386.60;;;;-50
2019/11/10 15:39:19;;;;;;;6.66;4.99;;;;;;;20.85;48.23;100393.66;;;;-50
2019/11/10 15:42:19;;;;;;;6.09;4.93;;;;;;;20.85;48.36;100400.20;;;;-50
2019/11/10 15:45:18;;;;;;;5.20;4.69;;;;;;;20.84;48.32;100412.52;;;;-50
2019/11/10 15:48:18;;;;;;;5.10;4.60;;;;;;;20.83;48.28;100418.52;;;;-50
2019/11/10 15:51:19;;;;;;;5.67;4.73;;;;;;;20.83;48.41;100424.33;;;;-50
2019/11/10 15:54:19;;;;;;;5.14;4.59;;;;;;;20.83;48.57;100431.21;;;;-50
2019/11/10 15:57:19;;;;;;;4.95;4.43;;;;;;;20.83;48.36;100429.70;;;;-51
2019/11/10 16:00:19;;;;;;;4.89;4.46;;;;;;;20.83;48.33;100437.16;;;;-50
2019/11/10 16:03:19;;;;;;;5.26;4.76;;;;;;;20.84;48.35;100440.18;;;;-50
2019/11/10 16:06:19;;;;;;;6.05;4.79;;;;;;;20.83;48.30;100443.80;;;;-50
2019/11/10 16:09:19;;;;;;;5.17;4.50;;;;;;;20.83;48.40;100445.38;;;;-50
2019/11/10 16:12:22;;;;;;;5.45;4.83;;;;;;;20.83;48.48;100449.84;;;;-50
2019/11/10 16:15:25;;;;;;;6.54;5.63;;;;;;;20.84;48.40;100456.96;;;;-50
2019/11/10 16:18:19;;;;;;;6.56;5.61;;;;;;;20.84;48.43;100456.73;;;;-50
2019/11/10 16:21:19;;;;;;;7.16;5.65;;;;;;;20.83;48.51;100464.11;;;;-50
2019/11/10 16:24:19;;;;;;;6.23;5.61;;;;;;;20.83;48.50;100467.20;;;;-50
2019/11/10 16:27:18;;;;;;;6.54;5.52;;;;;;;20.83;48.46;100472.57;;;;-50
2019/11/10 16:30:18;;;;;;;6.15;5.49;;;;;;;20.84;48.62;100479.39;;;;-50
2019/11/10 16:33:18;;;;;;;6.99;5.79;;;;;;;20.83;48.44;100479.72;;;;-50
2019/11/10 16:36:18;;;;;;;6.07;5.45;;;;;;;20.84;48.58;100485.00;;;;-51
2019/11/10 16:39:19;;;;;;;6.06;5.25;;;;;;;20.84;48.56;100488.19;;;;-51
2019/11/10 16:42:19;;;;;;;6.12;5.47;;;;;;;20.83;48.63;100490.27;;;;-50
2019/11/10 16:45:19;;;;;;;6.17;5.45;;;;;;;20.83;48.58;100491.30;;;;-50
2019/11/10 16:48:19;;;;;;;6.59;5.34;;;;;;;20.83;48.45;100491.54;;;;-50
2019/11/10 16:51:19;;;;;;;6.10;5.49;;;;;;;20.83;48.47;100489.82;;;;-48
2019/11/10 16:54:19;;;;;;;6.71;5.51;;;;;;;20.83;48.76;100487.61;;;;-48
2019/11/10 16:57:19;;;;;;;6.15;5.55;;;;;;;20.85;48.91;100494.54;;;;-49
2019/11/10 17:00:19;;;;;;;7.11;5.55;;;;;;;20.85;48.91;100504.44;;;;-49
2019/11/10 17:03:19;;;;;;;5.84;5.24;;;;;;;20.87;49.02;100509.55;;;;-48